sensor_id;sensor_type;location;lat;lon;timestamp;pressure;altitude;pressure_sealevel;temperature;humidity
70954;BME280;58618;47.490;8.736;2023-05-23T00:01:42;96379.97;;;13.66;100.00
70954;BME280;58618;47.490;8.736;2023-05-23T00:04:30;96364.66;;;13.56;100.00
70954;BME280;58618;47.490;8.736;2023-05-23T00:07:17;96375.50;;;13.58;100.00
70954;BME280;58618;47.490;8.736;2023-05-23T00:10:05;96371.72;;;13.64;100.00
70954;BME280;58618;47.490;8.736;2023-05-23T00:12:53;96361.94;;;13.61;100.00
70954;BME280;58618;47.490;8.736;2023-05-23T00:15:44;96379.97;;;13.66;100.00
70954;BME280;58618;47.490;8.736;2023-05-23T00:18:31;96387.75;;;13.66;100.00
70954;BME280;58618;47.490;8.736;2023-05-23T00:21:19;96378.44;;;13.65;100.00
70954;BME280;58618;47.490;8.736;2023-05-23T00:24:06;96377.66;;;13.65;100.00
70954;BME280;58618;47.490;8.736;2023-05-23T00:26:55;96377.97;;;13.63;100.00
70954;BME280;58618;47.490;8.736;2023-05-23T00:29:43;96377.13;;;13.54;100.00
70954;BME280;58618;47.490;8.736;2023-05-23T00:32:32;96385.50;;;13.51;100.00
70954;BME280;58618;47.490;8.736;2023-05-23T00:35:20;96391.91;;;13.53;100.00
70954;BME280;58618;47.490;8.736;2023-05-23T00:38:08;96390.78;;;13.46;100.00
70954;BME280;58618;47.490;8.736;2023-05-23T00:40:56;96396.38;;;13.39;100.00
70954;BME280;58618;47.490;8.736;2023-05-23T00:43:43;96392.19;;;13.30;100.00
70954;BME280;58618;47.490;8.736;2023-05-23T00:46:31;96391.03;;;13.22;100.00
70954;BME280;58618;47.490;8.736;2023-05-23T00:49:20;96400.50;;;13.40;100.00
70954;BME280;58618;47.490;8.736;2023-05-23T00:52:08;96390.66;;;13.29;100.00
70954;BME280;58618;47.490;8.736;2023-05-23T00:54:56;96391.03;;;13.22;100.00
70954;BME280;58618;47.490;8.736;2023-05-23T00:57:43;96396.97;;;13.23;100.00
70954;BME280;58618;47.490;8.736;2023-05-23T01:00:31;96393.34;;;13.10;100.00
70954;BME280;58618;47.490;8.736;2023-05-23T01:03:19;96377.81;;;13.10;100.00
70954;BME280;58618;47.490;8.736;2023-05-23T01:06:08;96383.09;;;13.05;100.00
70954;BME280;58618;47.490;8.736;2023-05-23T01:08:56;96394.31;;;13.00;100.00
70954;BME280;58618;47.490;8.736;2023-05-23T01:12:01;96386.06;;;12.98;100.00
70954;BME280;58618;47.490;8.736;2023-05-23T01:15:00;96389.16;;;13.00;100.00
70954;BME280;58618;47.490;8.736;2023-05-23T01:17:54;96389.25;;;12.95;100.00
70954;BME280;58618;47.490;8.736;2023-05-23T01:20:48;96381.56;;;12.90;100.00
70954;BME280;58618;47.490;8.736;2023-05-23T01:27:04;96389.81;;;12.92;100.00
70954;BME280;58618;47.490;8.736;2023-05-23T01:29:56;96390.88;;;12.91;100.00
70954;BME280;58618;47.490;8.736;2023-05-23T01:32:45;96391.06;;;12.81;100.00
70954;BME280;58618;47.490;8.736;2023-05-23T01:35:34;96387.03;;;12.75;100.00
70954;BME280;58618;47.490;8.736;2023-05-23T01:38:21;96384.94;;;12.77;100.00
70954;BME280;58618;47.490;8.736;2023-05-23T01:41:09;96393.38;;;12.83;100.00
70954;BME280;58618;47.490;8.736;2023-05-23T01:43:56;96395.88;;;12.74;100.00
70954;BME280;58618;47.490;8.736;2023-05-23T01:46:45;96384.94;;;12.63;100.00
70954;BME280;58618;47.490;8.736;2023-05-23T01:49:34;96393.34;;;12.69;100.00
70954;BME280;58618;47.490;8.736;2023-05-23T01:52:23;96388.69;;;12.71;100.00
70954;BME280;58618;47.490;8.736;2023-05-23T01:55:13;96397.97;;;12.72;100.00
70954;BME280;58618;47.490;8.736;2023-05-23T01:58:04;96386.56;;;12.73;100.00
70954;BME280;58618;47.490;8.736;2023-05-23T02:00:52;96400.09;;;12.84;100.00
70954;BME280;58618;47.490;8.736;2023-05-23T02:03:40;96396.44;;;12.71;100.00
70954;BME280;58618;47.490;8.736;2023-05-23T02:06:28;96386.69;;;12.68;100.00
70954;BME280;58618;47.490;8.736;2023-05-23T02:09:16;96391.84;;;12.68;100.00
70954;BME280;58618;47.490;8.736;2023-05-23T02:12:04;96388.28;;;12.64;100.00
70954;BME280;58618;47.490;8.736;2023-05-23T02:14:52;96395.47;;;12.67;100.00
70954;BME280;58618;47.490;8.736;2023-05-23T02:17:40;96390.69;;;12.60;100.00
70954;BME280;58618;47.490;8.736;2023-05-23T02:20:29;96384.19;;;12.63;100.00
70954;BME280;58618;47.490;8.736;2023-05-23T02:23:17;96392.91;;;12.67;100.00
70954;BME280;58618;47.490;8.736;2023-05-23T02:26:04;96389.16;;;12.59;100.00
70954;BME280;58618;47.490;8.736;2023-05-23T02:28:52;96391.84;;;12.68;100.00
70954;BME280;58618;47.490;8.736;2023-05-23T02:31:39;96390.13;;;12.77;100.00
70954;BME280;58618;47.490;8.736;2023-05-23T02:34:26;96404.09;;;12.76;100.00
70954;BME280;58618;47.490;8.736;2023-05-23T02:37:15;96400.06;;;12.70;100.00
70954;BME280;58618;47.490;8.736;2023-05-23T02:40:04;96401.53;;;12.62;100.00
70954;BME280;58618;47.490;8.736;2023-05-23T02:42:52;96402.38;;;12.58;100.00
70954;BME280;58618;47.490;8.736;2023-05-23T02:45:42;96413.47;;;12.58;100.00
70954;BME280;58618;47.490;8.736;2023-05-23T02:48:29;96421.56;;;12.57;100.00
70954;BME280;58618;47.490;8.736;2023-05-23T02:51:16;96408.13;;;12.55;100.00
70954;BME280;58618;47.490;8.736;2023-05-23T02:54:05;96417.34;;;12.61;100.00
70954;BME280;58618;47.490;8.736;2023-05-23T02:56:53;96422.50;;;12.61;100.00
70954;BME280;58618;47.490;8.736;2023-05-23T02:59:40;96427.69;;;12.61;100.00
70954;BME280;58618;47.490;8.736;2023-05-23T03:02:28;96426.53;;;12.67;100.00
70954;BME280;58618;47.490;8.736;2023-05-23T03:05:15;96427.59;;;12.66;100.00
70954;BME280;58618;47.490;8.736;2023-05-23T03:08:02;96422.31;;;12.71;100.00
70954;BME280;58618;47.490;8.736;2023-05-23T03:10:51;96415.59;;;12.70;100.00
70954;BME280;58618;47.490;8.736;2023-05-23T03:13:39;96422.31;;;12.71;100.00
70954;BME280;58618;47.490;8.736;2023-05-23T03:16:26;96412.91;;;12.75;100.00
70954;BME280;58618;47.490;8.736;2023-05-23T03:19:13;96417.63;;;12.87;100.00
70954;BME280;58618;47.490;8.736;2023-05-23T03:22:01;96419.81;;;12.93;100.00
70954;BME280;58618;47.490;8.736;2023-05-23T03:24:48;96405.06;;;12.80;100.00
70954;BME280;58618;47.490;8.736;2023-05-23T03:27:37;96414.25;;;12.86;100.00
70954;BME280;58618;47.490;8.736;2023-05-23T03:30:24;96418.66;;;12.86;100.00
70954;BME280;58618;47.490;8.736;2023-05-23T03:33:11;96426.34;;;12.91;100.00
70954;BME280;58618;47.490;8.736;2023-05-23T03:35:58;96417.91;;;12.85;100.00
70954;BME280;58618;47.490;8.736;2023-05-23T03:38:46;96426.16;;;12.87;100.00
70954;BME280;58618;47.490;8.736;2023-05-23T03:41:33;96441.41;;;13.02;100.00
70954;BME280;58618;47.490;8.736;2023-05-23T03:44:22;96411.78;;;12.81;100.00
70954;BME280;58618;47.490;8.736;2023-05-23T03:47:09;96439.56;;;13.03;100.00
70954;BME280;58618;47.490;8.736;2023-05-23T03:49:57;96436.31;;;13.11;100.00
70954;BME280;58618;47.490;8.736;2023-05-23T03:52:44;96442.47;;;13.15;100.00
70954;BME280;58618;47.490;8.736;2023-05-23T03:55:32;96444.97;;;13.20;100.00
70954;BME280;58618;47.490;8.736;2023-05-23T03:58:19;96455.31;;;13.34;100.00
70954;BME280;58618;47.490;8.736;2023-05-23T04:01:08;96442.16;;;13.30;100.00
70954;BME280;58618;47.490;8.736;2023-05-23T04:03:55;96455.56;;;13.46;100.00
70954;BME280;58618;47.490;8.736;2023-05-23T04:06:43;96456.06;;;13.48;100.00
70954;BME280;58618;47.490;8.736;2023-05-23T04:09:30;96460.47;;;13.47;100.00
70954;BME280;58618;47.490;8.736;2023-05-23T04:12:17;96458.44;;;13.58;100.00
70954;BME280;58618;47.490;8.736;2023-05-23T04:15:07;96462.75;;;13.63;100.00
70954;BME280;58618;47.490;8.736;2023-05-23T04:17:56;96466.00;;;13.68;100.00
70954;BME280;58618;47.490;8.736;2023-05-23T04:20:45;96464.22;;;13.77;100.00
70954;BME280;58618;47.490;8.736;2023-05-23T04:23:32;96469.19;;;13.87;100.00
70954;BME280;58618;47.490;8.736;2023-05-23T04:26:20;96471.09;;;13.95;100.00
70954;BME280;58618;47.490;8.736;2023-05-23T04:29:07;96460.47;;;14.06;100.00
70954;BME280;58618;47.490;8.736;2023-05-23T04:31:57;96463.38;;;14.26;100.00
70954;BME280;58618;47.490;8.736;2023-05-23T04:34:46;96465.84;;;14.31;100.00
70954;BME280;58618;47.490;8.736;2023-05-23T04:37:33;96462.84;;;14.38;100.00
70954;BME280;58618;47.490;8.736;2023-05-23T04:40:22;96461.19;;;14.42;100.00
70954;BME280;58618;47.490;8.736;2023-05-23T04:43:10;96466.25;;;14.47;100.00
70954;BME280;58618;47.490;8.736;2023-05-23T04:45:59;96467.66;;;14.53;100.00
70954;BME280;58618;47.490;8.736;2023-05-23T04:48:47;96473.19;;;14.60;100.00
70954;BME280;58618;47.490;8.736;2023-05-23T04:51:37;96462.34;;;14.58;100.00
70954;BME280;58618;47.490;8.736;2023-05-23T04:54:24;96478.72;;;14.67;100.00
70954;BME280;58618;47.490;8.736;2023-05-23T04:57:12;96478.06;;;14.93;100.00
70954;BME280;58618;47.490;8.736;2023-05-23T04:59:59;96474.97;;;14.82;100.00
70954;BME280;58618;47.490;8.736;2023-05-23T05:02:47;96487.25;;;14.99;100.00
70954;BME280;58618;47.490;8.736;2023-05-23T05:05:34;96481.94;;;15.04;100.00
70954;BME280;58618;47.490;8.736;2023-05-23T05:08:23;96477.03;;;15.02;100.00
70954;BME280;58618;47.490;8.736;2023-05-23T05:11:11;96471.66;;;14.99;100.00
70954;BME280;58618;47.490;8.736;2023-05-23T05:13:58;96481.34;;;15.15;100.00
70954;BME280;58618;47.490;8.736;2023-05-23T05:16:46;96475.44;;;15.32;100.00
70954;BME280;58618;47.490;8.736;2023-05-23T05:19:35;96482.81;;;15.47;100.00
70954;BME280;58618;47.490;8.736;2023-05-23T05:22:22;96474.75;;;15.66;100.00
70954;BME280;58618;47.490;8.736;2023-05-23T05:25:12;96485.31;;;15.95;100.00
70954;BME280;58618;47.490;8.736;2023-05-23T05:28:00;96475.22;;;16.11;100.00
70954;BME280;58618;47.490;8.736;2023-05-23T05:30:50;96462.81;;;16.17;100.00
70954;BME280;58618;47.490;8.736;2023-05-23T05:33:39;96474.22;;;16.59;100.00
70954;BME280;58618;47.490;8.736;2023-05-23T05:36:26;96475.03;;;16.97;100.00
70954;BME280;58618;47.490;8.736;2023-05-23T05:39:14;96485.88;;;16.99;100.00
70954;BME280;58618;47.490;8.736;2023-05-23T05:42:03;96490.59;;;17.35;100.00
70954;BME280;58618;47.490;8.736;2023-05-23T05:44:51;96490.19;;;17.33;100.00
70954;BME280;58618;47.490;8.736;2023-05-23T05:47:38;96490.47;;;17.31;100.00
70954;BME280;58618;47.490;8.736;2023-05-23T05:50:25;96489.13;;;17.55;100.00
70954;BME280;58618;47.490;8.736;2023-05-23T05:53:13;96492.91;;;18.40;100.00
70954;BME280;58618;47.490;8.736;2023-05-23T05:56:01;96489.91;;;19.56;100.00
70954;BME280;58618;47.490;8.736;2023-05-23T05:58:50;96488.16;;;19.48;100.00
70954;BME280;58618;47.490;8.736;2023-05-23T06:01:37;96488.69;;;19.94;100.00
70954;BME280;58618;47.490;8.736;2023-05-23T06:04:25;96503.22;;;20.31;100.00
70954;BME280;58618;47.490;8.736;2023-05-23T06:07:13;96493.38;;;20.28;95.57
70954;BME280;58618;47.490;8.736;2023-05-23T06:10:00;96507.56;;;22.80;84.57
70954;BME280;58618;47.490;8.736;2023-05-23T06:12:47;96505.81;;;23.37;79.03
70954;BME280;58618;47.490;8.736;2023-05-23T06:15:36;96500.22;;;22.70;80.67
70954;BME280;58618;47.490;8.736;2023-05-23T06:18:23;96501.13;;;22.36;83.51
70954;BME280;58618;47.490;8.736;2023-05-23T06:21:11;96503.50;;;23.88;77.21
70954;BME280;58618;47.490;8.736;2023-05-23T06:23:58;96498.03;;;25.76;65.16
70954;BME280;58618;47.490;8.736;2023-05-23T06:26:45;96498.78;;;27.16;57.51
70954;BME280;58618;47.490;8.736;2023-05-23T06:29:33;96503.88;;;26.14;61.12
70954;BME280;58618;47.490;8.736;2023-05-23T06:32:23;96510.97;;;25.92;60.96
70954;BME280;58618;47.490;8.736;2023-05-23T06:35:10;96515.63;;;25.47;61.63
70954;BME280;58618;47.490;8.736;2023-05-23T06:37:57;96511.78;;;23.86;68.52
70954;BME280;58618;47.490;8.736;2023-05-23T06:40:45;96512.97;;;23.13;73.53
70954;BME280;58618;47.490;8.736;2023-05-23T06:43:32;96517.78;;;22.85;76.58
70954;BME280;58618;47.490;8.736;2023-05-23T06:46:19;96517.22;;;22.72;77.63
70954;BME280;58618;47.490;8.736;2023-05-23T06:49:08;96515.34;;;24.31;70.43
70954;BME280;58618;47.490;8.736;2023-05-23T06:51:55;96518.13;;;23.06;76.59
70954;BME280;58618;47.490;8.736;2023-05-23T06:54:43;96514.53;;;22.30;79.71
70954;BME280;58618;47.490;8.736;2023-05-23T06:57:30;96516.13;;;23.23;75.79
70954;BME280;58618;47.490;8.736;2023-05-23T07:00:18;96497.31;;;23.21;73.88
70954;BME280;58618;47.490;8.736;2023-05-23T07:03:06;96519.97;;;23.29;72.62
70954;BME280;58618;47.490;8.736;2023-05-23T07:05:54;96516.19;;;22.39;77.90
70954;BME280;58618;47.490;8.736;2023-05-23T07:08:42;96517.38;;;22.64;76.44
70954;BME280;58618;47.490;8.736;2023-05-23T07:11:29;96525.19;;;21.99;79.79
70954;BME280;58618;47.490;8.736;2023-05-23T07:14:16;96521.25;;;20.92;89.74
70954;BME280;58618;47.490;8.736;2023-05-23T07:17:05;96517.16;;;21.41;81.20
70954;BME280;58618;47.490;8.736;2023-05-23T07:19:52;96526.31;;;21.47;81.12
70954;BME280;58618;47.490;8.736;2023-05-23T07:22:41;96528.50;;;20.67;90.80
70954;BME280;58618;47.490;8.736;2023-05-23T07:25:28;96524.31;;;20.50;85.47
70954;BME280;58618;47.490;8.736;2023-05-23T07:28:15;96548.97;;;19.81;92.96
70954;BME280;58618;47.490;8.736;2023-05-23T07:31:03;96544.97;;;20.00;92.12
70954;BME280;58618;47.490;8.736;2023-05-23T07:33:50;96539.88;;;20.03;93.21
70954;BME280;58618;47.490;8.736;2023-05-23T07:36:38;96545.25;;;19.83;94.31
70954;BME280;58618;47.490;8.736;2023-05-23T07:39:27;96544.72;;;19.53;96.01
70954;BME280;58618;47.490;8.736;2023-05-23T07:42:14;96562.47;;;19.11;96.67
70954;BME280;58618;47.490;8.736;2023-05-23T07:45:02;96560.38;;;19.04;97.86
70954;BME280;58618;47.490;8.736;2023-05-23T07:47:49;96564.31;;;18.98;97.97
70954;BME280;58618;47.490;8.736;2023-05-23T07:50:38;96568.66;;;19.06;97.76
70954;BME280;58618;47.490;8.736;2023-05-23T07:53:26;96567.56;;;18.62;100.00
70954;BME280;58618;47.490;8.736;2023-05-23T07:56:14;96566.31;;;18.80;100.00
70954;BME280;58618;47.490;8.736;2023-05-23T07:59:02;96564.34;;;18.44;100.00
70954;BME280;58618;47.490;8.736;2023-05-23T08:01:49;96549.63;;;18.40;100.00
70954;BME280;58618;47.490;8.736;2023-05-23T08:04:36;96560.31;;;18.47;100.00
70954;BME280;58618;47.490;8.736;2023-05-23T08:07:25;96558.47;;;18.27;100.00
70954;BME280;58618;47.490;8.736;2023-05-23T08:10:12;96560.31;;;18.47;100.00
70954;BME280;58618;47.490;8.736;2023-05-23T08:13:01;96561.19;;;18.51;100.00
70954;BME280;58618;47.490;8.736;2023-05-23T08:15:51;96558.47;;;18.47;100.00
70954;BME280;58618;47.490;8.736;2023-05-23T08:18:39;96558.25;;;18.73;100.00
70954;BME280;58618;47.490;8.736;2023-05-23T08:21:26;96553.00;;;18.73;100.00
70954;BME280;58618;47.490;8.736;2023-05-23T08:24:13;96554.84;;;18.40;100.00
70954;BME280;58618;47.490;8.736;2023-05-23T08:27:01;96552.91;;;18.49;100.00
70954;BME280;58618;47.490;8.736;2023-05-23T08:29:49;96553.94;;;18.56;100.00
70954;BME280;58618;47.490;8.736;2023-05-23T08:32:37;96561.66;;;18.86;100.00
70954;BME280;58618;47.490;8.736;2023-05-23T08:35:25;96554.16;;;18.96;100.00
70954;BME280;58618;47.490;8.736;2023-05-23T08:38:14;96560.06;;;19.06;100.00
70954;BME280;58618;47.490;8.736;2023-05-23T08:41:04;96567.06;;;19.38;100.00
70954;BME280;58618;47.490;8.736;2023-05-23T08:43:55;96561.13;;;20.02;96.00
70954;BME280;58618;47.490;8.736;2023-05-23T08:46:45;96565.44;;;20.34;93.78
70954;BME280;58618;47.490;8.736;2023-05-23T08:49:35;96575.44;;;20.44;91.88
70954;BME280;58618;47.490;8.736;2023-05-23T08:52:24;96572.31;;;20.67;88.57
70954;BME280;58618;47.490;8.736;2023-05-23T08:55:13;96560.88;;;20.75;89.45
70954;BME280;58618;47.490;8.736;2023-05-23T08:58:02;96564.97;;;20.72;87.42
70954;BME280;58618;47.490;8.736;2023-05-23T09:00:51;96563.19;;;20.76;85.02
70954;BME280;58618;47.490;8.736;2023-05-23T09:03:40;96560.94;;;20.62;83.40
70954;BME280;58618;47.490;8.736;2023-05-23T09:06:28;96563.13;;;21.04;81.48
70954;BME280;58618;47.490;8.736;2023-05-23T09:09:15;96559.41;;;21.68;82.81
70954;BME280;58618;47.490;8.736;2023-05-23T09:12:03;96556.81;;;22.41;74.17
70954;BME280;58618;47.490;8.736;2023-05-23T09:14:51;96556.47;;;23.53;75.93
70954;BME280;58618;47.490;8.736;2023-05-23T09:17:38;96549.44;;;23.38;67.18
70954;BME280;58618;47.490;8.736;2023-05-23T09:20:27;96558.34;;;23.30;66.49
70954;BME280;58618;47.490;8.736;2023-05-23T09:23:15;96552.25;;;22.99;65.32
70954;BME280;58618;47.490;8.736;2023-05-23T09:26:02;96552.53;;;23.43;67.27
70954;BME280;58618;47.490;8.736;2023-05-23T09:28:50;96537.00;;;23.12;64.48
70954;BME280;58618;47.490;8.736;2023-05-23T09:31:37;96548.78;;;23.97;61.80
70954;BME280;58618;47.490;8.736;2023-05-23T09:34:24;96542.91;;;24.07;60.92
70954;BME280;58618;47.490;8.736;2023-05-23T09:37:14;96536.47;;;22.80;66.31
70954;BME280;58618;47.490;8.736;2023-05-23T09:40:06;96529.75;;;22.41;67.94
70954;BME280;58618;47.490;8.736;2023-05-23T09:43:01;96535.38;;;23.04;66.05
70954;BME280;58618;47.490;8.736;2023-05-23T09:45:49;96538.56;;;23.62;62.62
70954;BME280;58618;47.490;8.736;2023-05-23T09:48:36;96536.41;;;23.71;62.77
70954;BME280;58618;47.490;8.736;2023-05-23T09:51:23;96534.50;;;23.68;62.12
70954;BME280;58618;47.490;8.736;2023-05-23T09:54:12;96529.78;;;24.44;58.97
70954;BME280;58618;47.490;8.736;2023-05-23T09:57:01;96528.84;;;23.43;64.69
70954;BME280;58618;47.490;8.736;2023-05-23T09:59:51;96526.66;;;23.23;67.95
70954;BME280;58618;47.490;8.736;2023-05-23T10:03:01;96526.66;;;24.31;62.86
70954;BME280;58618;47.490;8.736;2023-05-23T10:05:55;96514.28;;;24.76;63.69
70954;BME280;58618;47.490;8.736;2023-05-23T10:08:45;96526.56;;;25.49;55.93
70954;BME280;58618;47.490;8.736;2023-05-23T10:15:05;96515.91;;;24.47;57.02
70954;BME280;58618;47.490;8.736;2023-05-23T10:18:01;96508.97;;;24.72;55.47
70954;BME280;58618;47.490;8.736;2023-05-23T10:20:51;96505.22;;;24.07;56.18
70954;BME280;58618;47.490;8.736;2023-05-23T10:23:42;96509.97;;;23.64;57.97
70954;BME280;58618;47.490;8.736;2023-05-23T10:26:30;96510.81;;;23.19;57.97
70954;BME280;58618;47.490;8.736;2023-05-23T10:29:17;96504.94;;;22.61;65.15
70954;BME280;58618;47.490;8.736;2023-05-23T10:32:08;96498.28;;;23.12;61.67
70954;BME280;58618;47.490;8.736;2023-05-23T10:35:03;96493.50;;;24.00;56.92
70954;BME280;58618;47.490;8.736;2023-05-23T10:37:56;96501.31;;;23.93;63.39
70954;BME280;58618;47.490;8.736;2023-05-23T10:40:49;96501.53;;;23.51;66.57
70954;BME280;58618;47.490;8.736;2023-05-23T10:43:46;96492.47;;;23.49;63.95
70954;BME280;58618;47.490;8.736;2023-05-23T10:47:00;96492.75;;;23.44;62.46
70954;BME280;58618;47.490;8.736;2023-05-23T10:49:51;96489.00;;;23.45;59.48
70954;BME280;58618;47.490;8.736;2023-05-23T10:52:40;96485.16;;;23.65;59.79
70954;BME280;58618;47.490;8.736;2023-05-23T10:55:30;96479.03;;;23.31;59.85
70954;BME280;58618;47.490;8.736;2023-05-23T10:58:19;96482.00;;;22.81;61.93
70954;BME280;58618;47.490;8.736;2023-05-23T11:01:08;96482.47;;;22.86;58.37
70954;BME280;58618;47.490;8.736;2023-05-23T11:04:04;96481.91;;;23.23;64.46
70954;BME280;58618;47.490;8.736;2023-05-23T11:06:54;96474.41;;;23.47;59.22
70954;BME280;58618;47.490;8.736;2023-05-23T11:10:03;96470.56;;;23.45;58.41
70954;BME280;58618;47.490;8.736;2023-05-23T11:13:04;96470.97;;;23.73;60.93
70954;BME280;58618;47.490;8.736;2023-05-23T11:15:52;96459.28;;;23.74;63.20
70954;BME280;58618;47.490;8.736;2023-05-23T11:18:39;96453.50;;;24.25;57.14
70954;BME280;58618;47.490;8.736;2023-05-23T11:21:28;96450.44;;;25.07;53.52
70954;BME280;58618;47.490;8.736;2023-05-23T11:24:18;96454.50;;;25.52;50.67
70954;BME280;58618;47.490;8.736;2023-05-23T11:27:10;96461.31;;;25.53;48.68
70954;BME280;58618;47.490;8.736;2023-05-23T11:30:01;96456.47;;;24.20;52.86
70954;BME280;58618;47.490;8.736;2023-05-23T11:32:50;96448.06;;;24.11;54.33
70954;BME280;58618;47.490;8.736;2023-05-23T11:35:39;96449.63;;;24.52;52.20
70954;BME280;58618;47.490;8.736;2023-05-23T11:38:27;96458.13;;;24.35;53.28
70954;BME280;58618;47.490;8.736;2023-05-23T11:41:16;96452.06;;;24.31;51.67
70954;BME280;58618;47.490;8.736;2023-05-23T11:44:10;96458.03;;;23.61;56.30
70954;BME280;58618;47.490;8.736;2023-05-23T11:46:58;96451.28;;;24.27;53.67
70954;BME280;58618;47.490;8.736;2023-05-23T11:49:46;96445.91;;;24.57;54.48
70954;BME280;58618;47.490;8.736;2023-05-23T11:52:34;96448.81;;;24.48;54.18
70954;BME280;58618;47.490;8.736;2023-05-23T11:55:22;96448.69;;;24.74;53.43
70954;BME280;58618;47.490;8.736;2023-05-23T11:58:11;96448.69;;;24.74;51.43
70954;BME280;58618;47.490;8.736;2023-05-23T12:00:59;96443.72;;;24.69;52.74
70954;BME280;58618;47.490;8.736;2023-05-23T12:03:48;96448.06;;;24.88;54.26
70954;BME280;58618;47.490;8.736;2023-05-23T12:06:37;96452.22;;;24.49;52.86
70954;BME280;58618;47.490;8.736;2023-05-23T12:09:25;96446.19;;;24.48;55.09
70954;BME280;58618;47.490;8.736;2023-05-23T12:12:13;96458.97;;;24.43;53.29
70954;BME280;58618;47.490;8.736;2023-05-23T12:15:03;96463.06;;;23.73;59.79
70954;BME280;58618;47.490;8.736;2023-05-23T12:17:52;96472.69;;;23.36;57.53
70954;BME280;58618;47.490;8.736;2023-05-23T12:20:40;96481.91;;;22.73;57.57
70954;BME280;58618;47.490;8.736;2023-05-23T12:23:28;96478.91;;;22.75;57.75
70954;BME280;58618;47.490;8.736;2023-05-23T12:26:15;96485.13;;;23.12;54.31
70954;BME280;58618;47.490;8.736;2023-05-23T12:29:02;96487.59;;;23.02;53.66
70954;BME280;58618;47.490;8.736;2023-05-23T12:31:51;96478.53;;;22.73;51.46
70954;BME280;58618;47.490;8.736;2023-05-23T12:34:40;96470.16;;;22.25;54.59
70954;BME280;58618;47.490;8.736;2023-05-23T12:37:27;96481.47;;;20.90;58.26
70954;BME280;58618;47.490;8.736;2023-05-23T12:40:17;96490.94;;;21.10;58.73
70954;BME280;58618;47.490;8.736;2023-05-23T12:43:08;96476.31;;;21.60;57.62
70954;BME280;58618;47.490;8.736;2023-05-23T12:45:55;96476.69;;;21.77;58.48
70954;BME280;58618;47.490;8.736;2023-05-23T12:48:44;96470.78;;;22.19;53.07
70954;BME280;58618;47.490;8.736;2023-05-23T12:51:32;96469.31;;;22.21;55.17
70954;BME280;58618;47.490;8.736;2023-05-23T12:54:19;96469.31;;;22.02;55.76
70954;BME280;58618;47.490;8.736;2023-05-23T12:57:06;96478.13;;;21.75;55.59
70954;BME280;58618;47.490;8.736;2023-05-23T12:59:54;96473.84;;;21.86;55.49
70954;BME280;58618;47.490;8.736;2023-05-23T13:02:41;96489.09;;;21.96;55.07
70954;BME280;58618;47.490;8.736;2023-05-23T13:05:30;96479.91;;;21.52;61.24
70954;BME280;58618;47.490;8.736;2023-05-23T13:08:17;96478.06;;;21.36;57.76
70954;BME280;58618;47.490;8.736;2023-05-23T13:11:05;96478.19;;;21.59;60.12
70954;BME280;58618;47.490;8.736;2023-05-23T13:13:52;96493.44;;;21.54;59.77
70954;BME280;58618;47.490;8.736;2023-05-23T13:16:39;96501.50;;;21.80;59.79
70954;BME280;58618;47.490;8.736;2023-05-23T13:19:26;96495.50;;;21.44;62.96
70954;BME280;58618;47.490;8.736;2023-05-23T13:22:15;96498.09;;;21.25;64.26
70954;BME280;58618;47.490;8.736;2023-05-23T13:25:03;96490.06;;;21.53;60.79
70954;BME280;58618;47.490;8.736;2023-05-23T13:27:51;96495.03;;;21.23;60.88
70954;BME280;58618;47.490;8.736;2023-05-23T13:30:38;96485.03;;;20.82;63.22
70954;BME280;58618;47.490;8.736;2023-05-23T13:33:25;96478.34;;;20.69;64.67
70954;BME280;58618;47.490;8.736;2023-05-23T13:36:13;96466.91;;;20.45;65.81
70954;BME280;58618;47.490;8.736;2023-05-23T13:39:02;96475.50;;;20.30;66.10
70954;BME280;58618;47.490;8.736;2023-05-23T13:41:50;96476.63;;;20.17;65.37
70954;BME280;58618;47.490;8.736;2023-05-23T13:44:37;96483.47;;;20.21;70.29
70954;BME280;58618;47.490;8.736;2023-05-23T13:47:24;96487.78;;;20.14;70.50
70954;BME280;58618;47.490;8.736;2023-05-23T13:50:12;96487.94;;;20.33;71.60
70954;BME280;58618;47.490;8.736;2023-05-23T13:52:59;96482.25;;;20.31;71.61
70954;BME280;58618;47.490;8.736;2023-05-23T13:55:48;96488.53;;;20.42;69.99
70954;BME280;58618;47.490;8.736;2023-05-23T13:58:35;96484.19;;;20.78;67.74
70954;BME280;58618;47.490;8.736;2023-05-23T14:01:22;96483.44;;;20.77;68.91
70954;BME280;58618;47.490;8.736;2023-05-23T14:04:10;96485.31;;;21.24;68.55
70954;BME280;58618;47.490;8.736;2023-05-23T14:06:57;96485.53;;;21.03;69.70
70954;BME280;58618;47.490;8.736;2023-05-23T14:09:44;96481.47;;;20.58;70.15
70954;BME280;58618;47.490;8.736;2023-05-23T14:12:33;96485.19;;;20.89;70.15
70954;BME280;58618;47.490;8.736;2023-05-23T14:15:21;96494.06;;;20.69;70.08
70954;BME280;58618;47.490;8.736;2023-05-23T14:18:08;96493.63;;;20.51;70.11
70954;BME280;58618;47.490;8.736;2023-05-23T14:20:55;96487.22;;;20.64;70.39
70954;BME280;58618;47.490;8.736;2023-05-23T14:23:43;96490.59;;;20.64;71.55
70954;BME280;58618;47.490;8.736;2023-05-23T14:26:30;96498.53;;;20.52;70.73
70954;BME280;58618;47.490;8.736;2023-05-23T14:29:19;96495.66;;;20.57;70.81
70954;BME280;58618;47.490;8.736;2023-05-23T14:32:07;96500.25;;;20.60;69.54
70954;BME280;58618;47.490;8.736;2023-05-23T14:34:54;96494.88;;;20.41;69.78
70954;BME280;58618;47.490;8.736;2023-05-23T14:37:41;96492.25;;;20.41;71.05
70954;BME280;58618;47.490;8.736;2023-05-23T14:40:29;96504.94;;;20.39;71.74
70954;BME280;58618;47.490;8.736;2023-05-23T14:43:16;96497.34;;;20.50;70.76
70954;BME280;58618;47.490;8.736;2023-05-23T14:46:05;96489.78;;;20.92;71.05
70954;BME280;58618;47.490;8.736;2023-05-23T14:48:53;96486.38;;;20.76;74.73
70954;BME280;58618;47.490;8.736;2023-05-23T14:51:41;96485.81;;;20.98;70.76
70954;BME280;58618;47.490;8.736;2023-05-23T14:54:28;96478.22;;;21.43;69.71